Time;durP1;ratioP1;P1;durP2;ratioP2;P2;SDS_P1;SDS_P2;PMS_P1;PMS_P2;Temp;Humidity;BMP_temperature;BMP_pressure;BME280_temperature;BME280_humidity;BME280_pressure;Samples;Min_cycle;Max_cycle;Signal;HPM_P1;HPM_P2
2023/11/20 00:02:13;;;;;;;15.95;2.42;;;;;;;;;;6155506;23;20025;-84
2023/11/20 00:04:41;;;;;;;10.77;1.90;;;;;;;;;;6181480;23;20025;-83
2023/11/20 00:07:08;;;;;;;5.28;1.67;;;;;;;;;;6155387;23;20544;-84
2023/11/20 00:09:35;;;;;;;15.48;2.00;;;;;;;;;;6155522;23;20082;-83
2023/11/20 00:12:03;;;;;;;13.48;2.45;;;;;;;;;;6181855;23;20021;-84
2023/11/20 00:14:30;;;;;;;11.07;2.03;;;;;;;;;;6155004;23;20025;-84
2023/11/20 00:16:58;;;;;;;9.55;1.80;;;;;;;;;;6155555;23;20476;-84
2023/11/20 00:19:27;;;;;;;8.85;1.50;;;;;;;;;;6155728;23;20028;-84
2023/11/20 00:21:54;;;;;;;9.30;1.85;;;;;;;;;;6155288;23;20108;-84
2023/11/20 00:24:21;;;;;;;8.85;1.08;;;;;;;;;;6155765;23;20025;-85
2023/11/20 00:26:48;;;;;;;12.60;1.83;;;;;;;;;;6155878;23;20021;-84
2023/11/20 00:29:16;;;;;;;7.85;1.30;;;;;;;;;;6155486;23;20372;-83
2023/11/20 00:31:44;;;;;;;5.90;1.20;;;;;;;;;;6181765;23;20107;-83
2023/11/20 00:34:11;;;;;;;8.98;1.52;;;;;;;;;;6181499;23;20024;-84
2023/11/20 00:36:38;;;;;;;7.65;1.65;;;;;;;;;;6155231;23;20480;-83
2023/11/20 00:39:06;;;;;;;4.88;1.00;;;;;;;;;;6181303;23;20066;-84
2023/11/20 00:41:35;;;;;;;6.35;1.10;;;;;;;;;;6157179;23;20025;-84
2023/11/20 00:44:03;;;;;;;4.75;1.10;;;;;;;;;;6184963;23;20021;-83
2023/11/20 00:46:30;;;;;;;5.90;1.20;;;;;;;;;;6155966;23;20025;-84
2023/11/20 00:48:57;;;;;;;7.55;1.30;;;;;;;;;;6181363;23;20025;-84
2023/11/20 00:51:25;;;;;;;7.28;1.23;;;;;;;;;;6155027;23;20024;-84
2023/11/20 00:53:52;;;;;;;7.22;0.95;;;;;;;;;;6155654;23;20028;-85
2023/11/20 00:56:20;;;;;;;7.30;1.40;;;;;;;;;;6155188;23;20462;-84
2023/11/20 00:58:47;;;;;;;6.40;1.15;;;;;;;;;;6181426;23;20466;-84
2023/11/20 01:01:15;;;;;;;5.68;0.98;;;;;;;;;;6182063;23;20029;-85
2023/11/20 01:03:43;;;;;;;5.38;1.10;;;;;;;;;;6181905;23;20092;-86
2023/11/20 01:06:12;;;;;;;5.05;1.25;;;;;;;;;;6155696;23;20555;-86
2023/11/20 01:08:40;;;;;;;7.28;1.23;;;;;;;;;;6155545;23;20021;-85
2023/11/20 01:11:08;;;;;;;7.30;1.38;;;;;;;;;;6155852;23;20021;-85
2023/11/20 01:13:36;;;;;;;4.68;1.30;;;;;;;;;;6155403;23;20024;-85
2023/11/20 01:16:04;;;;;;;5.97;1.10;;;;;;;;;;6181693;23;20021;-85
2023/11/20 01:18:32;;;;;;;12.13;2.30;;;;;;;;;;6156191;23;20021;-86
2023/11/20 01:21:00;;;;;;;6.40;1.30;;;;;;;;;;6181885;23;20033;-85
2023/11/20 01:23:27;;;;;;;7.85;1.02;;;;;;;;;;6181639;23;20421;-86
2023/11/20 01:25:55;;;;;;;5.45;1.52;;;;;;;;;;6155203;23;20454;-86
2023/11/20 01:28:23;;;;;;;5.40;1.08;;;;;;;;;;6181807;23;20040;-85
2023/11/20 01:30:50;;;;;;;8.35;1.58;;;;;;;;;;6181846;23;20025;-86
2023/11/20 01:33:19;;;;;;;9.38;2.17;;;;;;;;;;6155803;23;20021;-85
2023/11/20 01:35:47;;;;;;;6.13;1.60;;;;;;;;;;6155034;23;20024;-85
2023/11/20 01:38:16;;;;;;;9.00;1.60;;;;;;;;;;6155646;23;20120;-85
2023/11/20 01:40:44;;;;;;;9.75;1.67;;;;;;;;;;6181885;23;20066;-84
2023/11/20 01:43:11;;;;;;;10.40;1.95;;;;;;;;;;6181722;23;20036;-84
2023/11/20 01:45:39;;;;;;;8.88;1.60;;;;;;;;;;6155451;23;20029;-84
2023/11/20 01:48:07;;;;;;;6.78;1.60;;;;;;;;;;6155607;23;20342;-85
2023/11/20 01:50:35;;;;;;;12.23;2.17;;;;;;;;;;6181328;23;20454;-85
2023/11/20 01:53:03;;;;;;;8.05;1.50;;;;;;;;;;6155027;23;20047;-85
2023/11/20 01:55:31;;;;;;;7.68;1.63;;;;;;;;;;6155362;23;20094;-85
2023/11/20 01:57:59;;;;;;;10.02;1.33;;;;;;;;;;6181712;23;20040;-85
2023/11/20 02:00:27;;;;;;;8.60;1.35;;;;;;;;;;6181594;23;20025;-85
2023/11/20 02:02:55;;;;;;;6.68;1.65;;;;;;;;;;6154751;23;20028;-84
2023/11/20 02:05:22;;;;;;;4.88;1.45;;;;;;;;;;6155128;23;20035;-84
2023/11/20 02:07:49;;;;;;;10.07;1.42;;;;;;;;;;6181421;23;20017;-84
2023/11/20 02:10:17;;;;;;;8.88;1.33;;;;;;;;;;6181373;23;20033;-85
2023/11/20 02:12:45;;;;;;;4.50;1.25;;;;;;;;;;6155064;23;20400;-84
2023/11/20 02:15:12;;;;;;;6.93;1.10;;;;;;;;;;6180893;23;20323;-84
2023/11/20 02:17:39;;;;;;;4.80;1.10;;;;;;;;;;6154832;23;20056;-84
2023/11/20 02:20:07;;;;;;;7.18;1.48;;;;;;;;;;6155797;23;20025;-84
2023/11/20 02:22:35;;;;;;;4.78;0.98;;;;;;;;;;6155144;23;20458;-85
2023/11/20 02:25:02;;;;;;;7.65;1.52;;;;;;;;;;6154940;23;20080;-84
2023/11/20 02:27:32;;;;;;;4.03;1.05;;;;;;;;;;6155437;23;20017;-85
2023/11/20 02:30:04;;;;;;;5.95;1.02;;;;;;;;;;6155376;23;20527;-84
2023/11/20 02:32:31;;;;;;;5.93;1.60;;;;;;;;;;6181509;23;20373;-84
2023/11/20 02:35:01;;;;;;;6.65;1.30;;;;;;;;;;6180490;23;20025;-85
2023/11/20 02:37:31;;;;;;;4.38;1.35;;;;;;;;;;6155257;23;20025;-84
2023/11/20 02:39:58;;;;;;;4.90;1.25;;;;;;;;;;6155156;23;20051;-84
2023/11/20 02:42:26;;;;;;;3.42;0.88;;;;;;;;;;6154920;23;20341;-84
2023/11/20 02:44:53;;;;;;;5.95;1.38;;;;;;;;;;6180686;23;20021;-85
2023/11/20 02:47:22;;;;;;;3.05;0.40;;;;;;;;;;6155370;23;20071;-83
2023/11/20 02:49:50;;;;;;;4.13;0.80;;;;;;;;;;6181140;23;20028;-85
2023/11/20 02:52:17;;;;;;;5.28;1.02;;;;;;;;;;6180788;23;20380;-83
2023/11/20 02:54:44;;;;;;;4.25;0.90;;;;;;;;;;6180590;23;20036;-84
2023/11/20 02:57:12;;;;;;;2.65;0.60;;;;;;;;;;6181076;23;20365;-84
2023/11/20 02:59:39;;;;;;;4.22;0.88;;;;;;;;;;6180942;23;20130;-84
2023/11/20 03:02:06;;;;;;;5.72;1.00;;;;;;;;;;6180884;23;20021;-85
2023/11/20 03:04:34;;;;;;;4.13;1.02;;;;;;;;;;6154307;23;20029;-84
2023/11/20 03:07:01;;;;;;;7.15;0.90;;;;;;;;;;6180893;23;20029;-84
2023/11/20 03:09:28;;;;;;;1.88;0.63;;;;;;;;;;6154030;23;20025;-85
2023/11/20 03:11:56;;;;;;;2.40;0.75;;;;;;;;;;6154667;23;20327;-84
2023/11/20 03:14:23;;;;;;;2.03;0.68;;;;;;;;;;6153399;23;20070;-83
2023/11/20 03:16:50;;;;;;;4.78;1.00;;;;;;;;;;6154399;23;20025;-84
2023/11/20 03:19:18;;;;;;;3.30;0.85;;;;;;;;;;6180677;23;20023;-83
2023/11/20 03:21:45;;;;;;;6.30;0.98;;;;;;;;;;6180504;23;20025;-84
2023/11/20 03:24:13;;;;;;;5.00;0.93;;;;;;;;;;6179736;23;20049;-84
2023/11/20 03:26:41;;;;;;;2.97;0.70;;;;;;;;;;6154632;23;20029;-84
2023/11/20 03:29:08;;;;;;;2.92;0.70;;;;;;;;;;6180553;23;20021;-85
2023/11/20 03:31:36;;;;;;;4.78;0.85;;;;;;;;;;6154606;23;20074;-85
2023/11/20 03:34:05;;;;;;;4.63;0.88;;;;;;;;;;6154377;23;20025;-85
2023/11/20 03:36:33;;;;;;;1.10;0.55;;;;;;;;;;6154088;23;20025;-84
2023/11/20 03:39:01;;;;;;;2.17;0.85;;;;;;;;;;6157809;23;20031;-84
2023/11/20 03:41:28;;;;;;;2.15;0.60;;;;;;;;;;6157968;23;20021;-84
2023/11/20 03:43:56;;;;;;;3.33;0.52;;;;;;;;;;6154251;23;20279;-84
2023/11/20 03:46:23;;;;;;;2.47;0.52;;;;;;;;;;6154354;23;20029;-83
2023/11/20 03:48:51;;;;;;;2.10;0.40;;;;;;;;;;6180151;23;20338;-83
2023/11/20 03:51:18;;;;;;;3.90;0.70;;;;;;;;;;6153954;23;20059;-84
2023/11/20 03:53:45;;;;;;;2.67;0.80;;;;;;;;;;6154093;23;20074;-84
2023/11/20 03:56:14;;;;;;;3.00;0.45;;;;;;;;;;6179868;23;20025;-84
2023/11/20 03:58:43;;;;;;;2.95;0.75;;;;;;;;;;6180363;23;20051;-83
2023/11/20 04:01:11;;;;;;;1.58;0.43;;;;;;;;;;6154476;23;20028;-85
2023/11/20 04:03:39;;;;;;;2.00;0.40;;;;;;;;;;6179836;23;20029;-84
2023/11/20 04:06:07;;;;;;;3.05;0.60;;;;;;;;;;6179593;23;20075;-84
2023/11/20 04:08:34;;;;;;;4.15;0.63;;;;;;;;;;6180286;23;20094;-84
2023/11/20 04:11:02;;;;;;;3.92;0.52;;;;;;;;;;6179955;23;20025;-86
2023/11/20 04:13:30;;;;;;;3.55;0.50;;;;;;;;;;6154230;23;20049;-84
2023/11/20 04:15:57;;;;;;;1.83;0.40;;;;;;;;;;6180147;23;20133;-85
2023/11/20 04:18:26;;;;;;;1.20;0.32;;;;;;;;;;6179455;23;20029;-84
2023/11/20 04:20:54;;;;;;;1.00;0.50;;;;;;;;;;6154302;23;20082;-84
2023/11/20 04:23:22;;;;;;;4.97;0.90;;;;;;;;;;6154136;23;20090;-84
2023/11/20 04:25:49;;;;;;;1.90;0.30;;;;;;;;;;6153987;23;20570;-84
2023/11/20 04:28:17;;;;;;;2.28;0.50;;;;;;;;;;6181584;23;20081;-85
2023/11/20 04:30:44;;;;;;;2.10;0.40;;;;;;;;;;6154633;23;20067;-83
2023/11/20 04:33:11;;;;;;;3.05;0.60;;;;;;;;;;6181548;23;20338;-84
2023/11/20 04:35:38;;;;;;;2.25;0.40;;;;;;;;;;6180776;23;20017;-85
2023/11/20 04:38:06;;;;;;;2.00;0.30;;;;;;;;;;6181491;23;20022;-84
2023/11/20 04:40:34;;;;;;;4.57;0.90;;;;;;;;;;6155187;23;20396;-84
2023/11/20 04:43:01;;;;;;;2.38;0.73;;;;;;;;;;6155726;23;20476;-85
2023/11/20 04:45:28;;;;;;;1.65;0.30;;;;;;;;;;6155319;23;20049;-84
2023/11/20 04:47:55;;;;;;;2.00;0.57;;;;;;;;;;6181390;23;20466;-84
2023/11/20 04:50:23;;;;;;;4.65;0.95;;;;;;;;;;6181941;23;20096;-84
2023/11/20 04:52:50;;;;;;;3.17;0.60;;;;;;;;;;6155675;23;20047;-85
2023/11/20 04:55:18;;;;;;;3.47;0.73;;;;;;;;;;6181699;23;20032;-84
2023/11/20 04:57:45;;;;;;;2.10;0.82;;;;;;;;;;6155737;23;20025;-84
2023/11/20 05:00:13;;;;;;;1.88;0.90;;;;;;;;;;6155695;23;20164;-84
2023/11/20 05:02:40;;;;;;;3.63;0.68;;;;;;;;;;6155925;23;20071;-85
2023/11/20 05:05:07;;;;;;;3.50;0.40;;;;;;;;;;6155156;23;20025;-83
2023/11/20 05:07:35;;;;;;;2.58;0.77;;;;;;;;;;6181508;23;20017;-84
2023/11/20 05:10:03;;;;;;;1.25;0.65;;;;;;;;;;6155104;23;20032;-83
2023/11/20 05:12:31;;;;;;;3.30;0.47;;;;;;;;;;6181080;23;20057;-84
2023/11/20 05:14:58;;;;;;;2.80;0.60;;;;;;;;;;6155222;23;20021;-84
2023/11/20 05:17:25;;;;;;;5.57;0.50;;;;;;;;;;6155308;23;20021;-84
2023/11/20 05:19:52;;;;;;;5.03;0.90;;;;;;;;;;6155263;23;20021;-84
2023/11/20 05:22:20;;;;;;;3.03;0.45;;;;;;;;;;6181928;23;20393;-86
2023/11/20 05:24:47;;;;;;;3.50;1.33;;;;;;;;;;6154819;23;20021;-84
2023/11/20 05:27:14;;;;;;;2.17;1.67;;;;;;;;;;6180704;23;20031;-84
2023/11/20 05:29:43;;;;;;;3.40;1.85;;;;;;;;;;6155737;23;20017;-84
2023/11/20 05:32:10;;;;;;;4.60;1.10;;;;;;;;;;6155911;23;20029;-84
2023/11/20 05:34:38;;;;;;;3.50;0.90;;;;;;;;;;6181400;23;20017;-84
2023/11/20 05:37:06;;;;;;;2.97;0.93;;;;;;;;;;6181846;23;20070;-84
2023/11/20 05:39:33;;;;;;;3.03;0.90;;;;;;;;;;6181339;23;20021;-84
2023/11/20 05:42:00;;;;;;;3.28;0.90;;;;;;;;;;6181630;23;20098;-85
2023/11/20 05:44:28;;;;;;;0.93;0.55;;;;;;;;;;6155809;23;20384;-84
2023/11/20 05:46:56;;;;;;;3.75;0.73;;;;;;;;;;6181097;23;20047;-84
2023/11/20 05:49:23;;;;;;;1.30;0.38;;;;;;;;;;6155732;23;20096;-84
2023/11/20 05:51:50;;;;;;;3.58;1.08;;;;;;;;;;6155312;23;20126;-84
2023/11/20 05:54:17;;;;;;;2.78;1.42;;;;;;;;;;6155081;23;20338;-84
2023/11/20 05:56:46;;;;;;;3.85;1.50;;;;;;;;;;6155680;23;20025;-84
2023/11/20 05:59:13;;;;;;;4.28;2.17;;;;;;;;;;6155797;23;20074;-85
2023/11/20 06:01:41;;;;;;;11.23;6.95;;;;;;;;;;6181564;23;20082;-84
2023/11/20 06:04:09;;;;;;;5.93;2.42;;;;;;;;;;6155748;22;20054;-84
2023/11/20 06:06:38;;;;;;;6.53;3.10;;;;;;;;;;6155387;23;20091;-84
2023/11/20 06:09:05;;;;;;;6.40;2.47;;;;;;;;;;6155633;23;20377;-84
2023/11/20 06:11:33;;;;;;;2.65;1.90;;;;;;;;;;6155074;23;20021;-84
2023/11/20 06:14:02;;;;;;;6.30;2.10;;;;;;;;;;6181255;23;20393;-84
2023/11/20 06:16:30;;;;;;;4.97;1.63;;;;;;;;;;6155760;23;20077;-84
2023/11/20 06:18:57;;;;;;;1.75;0.80;;;;;;;;;;6181492;23;20082;-84
2023/11/20 06:21:25;;;;;;;1.52;0.47;;;;;;;;;;6155521;23;20510;-84
2023/11/20 06:23:54;;;;;;;1.00;0.40;;;;;;;;;;6181025;23;20521;-85
2023/11/20 06:26:22;;;;;;;2.03;0.70;;;;;;;;;;6181365;23;20076;-84
2023/11/20 06:28:49;;;;;;;2.88;0.80;;;;;;;;;;6181367;23;20040;-84
2023/11/20 06:31:17;;;;;;;1.40;0.63;;;;;;;;;;6155543;23;20024;-84
2023/11/20 06:33:44;;;;;;;2.80;1.00;;;;;;;;;;6154849;23;20063;-84
2023/11/20 06:36:12;;;;;;;2.25;0.63;;;;;;;;;;6186390;23;20025;-84
2023/11/20 06:38:39;;;;;;;2.65;0.50;;;;;;;;;;6185280;23;20021;-85
2023/11/20 06:41:07;;;;;;;1.20;0.40;;;;;;;;;;6181587;23;20137;-85
2023/11/20 06:43:35;;;;;;;2.78;0.65;;;;;;;;;;6155491;23;20350;-84
2023/11/20 06:46:02;;;;;;;2.33;0.70;;;;;;;;;;6181133;23;20060;-85
2023/11/20 06:48:30;;;;;;;1.10;0.40;;;;;;;;;;6154601;23;20504;-84
2023/11/20 06:50:57;;;;;;;5.15;0.65;;;;;;;;;;6154730;23;20021;-84
2023/11/20 06:53:25;;;;;;;4.05;0.70;;;;;;;;;;6180781;23;20044;-84
2023/11/20 06:55:53;;;;;;;3.75;0.80;;;;;;;;;;6154876;23;20027;-84
2023/11/20 06:58:20;;;;;;;1.10;0.43;;;;;;;;;;6155381;23;20025;-85
2023/11/20 07:00:48;;;;;;;3.67;1.08;;;;;;;;;;6180764;23;20021;-84
2023/11/20 07:03:19;;;;;;;1.50;1.02;;;;;;;;;;6181194;23;20025;-84
2023/11/20 07:05:47;;;;;;;2.55;0.98;;;;;;;;;;6154272;22;20028;-84
2023/11/20 07:08:16;;;;;;;1.77;0.43;;;;;;;;;;6155462;23;20070;-84
2023/11/20 07:10:44;;;;;;;3.42;0.50;;;;;;;;;;6155002;23;20388;-84
2023/11/20 07:13:11;;;;;;;3.13;0.50;;;;;;;;;;6181085;23;20021;-83
2023/11/20 07:15:38;;;;;;;3.72;0.55;;;;;;;;;;6154500;23;20017;-84
2023/11/20 07:18:09;;;;;;;2.05;0.50;;;;;;;;;;6155255;23;20021;-85
2023/11/20 07:20:37;;;;;;;0.95;0.30;;;;;;;;;;6180969;23;20017;-84
2023/11/20 07:23:05;;;;;;;1.23;0.57;;;;;;;;;;6154641;23;20025;-83
2023/11/20 07:25:35;;;;;;;3.58;0.80;;;;;;;;;;6154375;23;20028;-84
2023/11/20 07:28:02;;;;;;;1.20;0.30;;;;;;;;;;6154504;23;20025;-83
2023/11/20 07:30:33;;;;;;;0.32;0.28;;;;;;;;;;6155066;23;20036;-84
2023/11/20 07:33:02;;;;;;;0.98;0.30;;;;;;;;;;6180912;23;20064;-83
2023/11/20 07:35:30;;;;;;;2.78;0.50;;;;;;;;;;6154567;23;20138;-84
2023/11/20 07:38:00;;;;;;;2.97;0.22;;;;;;;;;;6180748;23;20462;-84
2023/11/20 07:40:28;;;;;;;1.15;0.45;;;;;;;;;;6154436;23;20025;-83
2023/11/20 07:42:56;;;;;;;1.23;0.40;;;;;;;;;;6154849;23;20396;-84
2023/11/20 07:45:24;;;;;;;1.33;0.40;;;;;;;;;;6154025;23;20021;-84
2023/11/20 07:47:51;;;;;;;1.60;0.40;;;;;;;;;;6180728;23;20017;-84
2023/11/20 07:50:18;;;;;;;0.70;0.30;;;;;;;;;;6180746;23;20029;-84
2023/11/20 07:52:46;;;;;;;2.65;0.50;;;;;;;;;;6153805;23;20021;-84
2023/11/20 07:55:13;;;;;;;3.50;0.40;;;;;;;;;;6154032;23;20082;-85
2023/11/20 07:57:41;;;;;;;1.25;0.32;;;;;;;;;;6154669;23;20082;-84
2023/11/20 08:00:11;;;;;;;2.83;0.32;;;;;;;;;;6154235;22;20354;-84
2023/11/20 08:02:39;;;;;;;0.73;0.30;;;;;;;;;;6181548;23;20047;-84
2023/11/20 08:05:08;;;;;;;0.20;0.10;;;;;;;;;;6180809;23;20400;-84
2023/11/20 08:07:36;;;;;;;0.65;0.30;;;;;;;;;;6155536;23;20043;-84
2023/11/20 08:10:04;;;;;;;1.85;0.50;;;;;;;;;;6181747;23;20025;-84
2023/11/20 08:12:33;;;;;;;0.20;0.10;;;;;;;;;;6181445;23;20025;-84
2023/11/20 08:15:02;;;;;;;1.33;0.28;;;;;;;;;;6155016;23;20419;-84
2023/11/20 08:17:30;;;;;;;0.40;0.20;;;;;;;;;;6181847;23;20024;-84
2023/11/20 08:19:58;;;;;;;0.47;0.17;;;;;;;;;;6155524;23;20027;-83
2023/11/20 08:22:25;;;;;;;0.30;0.30;;;;;;;;;;6155269;23;20070;-84
2023/11/20 08:24:52;;;;;;;0.75;0.43;;;;;;;;;;6154987;23;20488;-84
2023/11/20 08:27:20;;;;;;;0.30;0.30;;;;;;;;;;6155334;23;20374;-84
2023/11/20 08:29:47;;;;;;;0.73;0.52;;;;;;;;;;6181687;23;20025;-84
2023/11/20 08:32:14;;;;;;;0.55;0.38;;;;;;;;;;6155559;23;20034;-84
2023/11/20 08:34:41;;;;;;;1.95;0.25;;;;;;;;;;6154681;23;20449;-84
2023/11/20 08:37:09;;;;;;;1.30;0.22;;;;;;;;;;6155965;23;20513;-83
2023/11/20 08:39:38;;;;;;;0.90;0.10;;;;;;;;;;6181647;23;20017;-84
2023/11/20 08:42:05;;;;;;;1.45;0.20;;;;;;;;;;6155118;23;20017;-83
2023/11/20 08:44:33;;;;;;;2.40;0.30;;;;;;;;;;6155189;23;20052;-84
2023/11/20 08:47:01;;;;;;;1.02;0.65;;;;;;;;;;6154834;23;20477;-84
2023/11/20 08:49:28;;;;;;;0.57;0.20;;;;;;;;;;6155541;23;20040;-84
2023/11/20 08:51:55;;;;;;;0.77;0.47;;;;;;;;;;6180386;23;20043;-85
2023/11/20 08:54:32;;;;;;;0.60;0.20;;;;;;;;;;6181253;23;20070;-84
2023/11/20 08:56:59;;;;;;;0.88;0.20;;;;;;;;;;6155503;23;20055;-84
2023/11/20 08:59:26;;;;;;;1.10;0.10;;;;;;;;;;6155120;23;20023;-83
2023/11/20 09:01:58;;;;;;;0.35;0.32;;;;;;;;;;6155966;22;20064;-84
2023/11/20 09:04:26;;;;;;;0.73;0.13;;;;;;;;;;6155319;23;20092;-84
2023/11/20 09:06:54;;;;;;;0.30;0.10;;;;;;;;;;6155210;23;20021;-83
2023/11/20 09:09:21;;;;;;;0.10;0.10;;;;;;;;;;6155852;23;20100;-84
2023/11/20 09:11:49;;;;;;;1.10;0.10;;;;;;;;;;6181268;23;20021;-83
2023/11/20 09:14:17;;;;;;;0.10;0.10;;;;;;;;;;6181186;23;20025;-83
2023/11/20 09:16:44;;;;;;;0.28;0.10;;;;;;;;;;6155371;23;20039;-84
2023/11/20 09:19:12;;;;;;;1.13;0.45;;;;;;;;;;6155069;23;20449;-84
2023/11/20 09:21:39;;;;;;;3.83;3.53;;;;;;;;;;6155052;23;20067;-84
2023/11/20 09:24:07;;;;;;;3.22;2.60;;;;;;;;;;6154761;23;20013;-84
2023/11/20 09:26:34;;;;;;;0.60;0.17;;;;;;;;;;6154963;23;20025;-84
2023/11/20 09:29:01;;;;;;;0.73;0.10;;;;;;;;;;6155267;23;20029;-83
2023/11/20 09:31:28;;;;;;;0.20;0.10;;;;;;;;;;6155997;23;20096;-84
2023/11/20 09:33:58;;;;;;;0.47;0.30;;;;;;;;;;6156290;23;20384;-84
2023/11/20 09:36:25;;;;;;;0.32;0.15;;;;;;;;;;6155956;23;20053;-84
2023/11/20 09:38:52;;;;;;;0.30;0.17;;;;;;;;;;6154986;23;20050;-84
2023/11/20 09:41:19;;;;;;;0.77;0.20;;;;;;;;;;6181025;23;20025;-83
2023/11/20 09:43:51;;;;;;;0.20;0.20;;;;;;;;;;6155876;23;20051;-83
2023/11/20 09:46:19;;;;;;;0.40;0.10;;;;;;;;;;6181429;23;20037;-84
2023/11/20 09:48:48;;;;;;;0.13;0.13;;;;;;;;;;6155641;23;20025;-84
2023/11/20 09:51:18;;;;;;;0.25;0.10;;;;;;;;;;6155353;23;20032;-85
2023/11/20 09:53:47;;;;;;;0.28;0.10;;;;;;;;;;6154884;23;20022;-83
2023/11/20 09:56:14;;;;;;;1.63;0.30;;;;;;;;;;6154690;23;20044;-83
2023/11/20 09:58:42;;;;;;;0.65;0.20;;;;;;;;;;6155305;23;20032;-84
2023/11/20 10:01:12;;;;;;;0.32;0.22;;;;;;;;;;6155498;23;20070;-84
2023/11/20 10:03:41;;;;;;;0.20;0.20;;;;;;;;;;6155436;23;20027;-84
2023/11/20 10:06:10;;;;;;;0.40;0.30;;;;;;;;;;6154943;23;20056;-84
2023/11/20 10:08:40;;;;;;;1.15;0.30;;;;;;;;;;6154845;23;20458;-84
2023/11/20 10:11:08;;;;;;;0.45;0.40;;;;;;;;;;6155269;23;20346;-84
2023/11/20 10:13:35;;;;;;;1.30;0.28;;;;;;;;;;6155108;23;20025;-84
2023/11/20 10:16:04;;;;;;;4.28;0.30;;;;;;;;;;6155184;23;20017;-84
2023/11/20 10:18:31;;;;;;;0.55;0.30;;;;;;;;;;6180771;23;20096;-84
2023/11/20 10:21:01;;;;;;;1.58;0.20;;;;;;;;;;6154932;23;20032;-84
2023/11/20 10:23:30;;;;;;;1.40;0.30;;;;;;;;;;6154915;23;20028;-84
2023/11/20 10:26:00;;;;;;;1.20;0.20;;;;;;;;;;6180856;23;20021;-84
2023/11/20 10:28:27;;;;;;;0.77;0.30;;;;;;;;;;6181380;23;20082;-83
2023/11/20 10:30:55;;;;;;;1.70;0.20;;;;;;;;;;6154773;23;20334;-84
2023/11/20 10:33:22;;;;;;;1.52;0.45;;;;;;;;;;6154971;23;20037;-83
2023/11/20 10:35:52;;;;;;;0.43;0.40;;;;;;;;;;6180069;23;20016;-83
2023/11/20 10:38:21;;;;;;;1.98;0.30;;;;;;;;;;6181197;23;20380;-84
2023/11/20 10:40:49;;;;;;;1.65;0.40;;;;;;;;;;6155296;23;20060;-84
2023/11/20 10:43:16;;;;;;;1.75;0.50;;;;;;;;;;6155261;23;20029;-85
2023/11/20 10:45:45;;;;;;;1.50;0.40;;;;;;;;;;6154439;23;20036;-84
2023/11/20 10:48:12;;;;;;;1.85;0.60;;;;;;;;;;6154896;23;20021;-84
2023/11/20 10:50:41;;;;;;;0.60;0.40;;;;;;;;;;6154233;23;20047;-84
2023/11/20 10:53:08;;;;;;;2.20;0.47;;;;;;;;;;6154539;23;20025;-83
2023/11/20 10:55:40;;;;;;;0.30;0.30;;;;;;;;;;6154469;23;20021;-84
2023/11/20 10:58:09;;;;;;;3.30;0.55;;;;;;;;;;6180216;23;20048;-84
2023/11/20 11:00:37;;;;;;;1.95;0.40;;;;;;;;;;6154884;23;20021;-84
2023/11/20 11:03:06;;;;;;;2.15;0.63;;;;;;;;;;6155069;23;20402;-84
2023/11/20 11:05:45;;;;;;;0.52;0.30;;;;;;;;;;6156892;23;20059;-84
2023/11/20 11:08:14;;;;;;;1.00;0.50;;;;;;;;;;6155319;23;20343;-84
2023/11/20 11:10:44;;;;;;;2.30;0.50;;;;;;;;;;6180820;23;20052;-85
2023/11/20 11:13:12;;;;;;;1.45;0.47;;;;;;;;;;6155066;23;20390;-85
2023/11/20 11:15:40;;;;;;;0.50;0.30;;;;;;;;;;6180712;23;20021;-85
2023/11/20 11:18:08;;;;;;;0.55;0.25;;;;;;;;;;6181046;23;20021;-84
2023/11/20 11:20:42;;;;;;;2.40;0.25;;;;;;;;;;6181019;23;20025;-85
2023/11/20 11:23:11;;;;;;;0.73;0.50;;;;;;;;;;6155031;23;20025;-85
2023/11/20 11:25:40;;;;;;;0.77;0.55;;;;;;;;;;6180418;23;20349;-85
2023/11/20 11:28:10;;;;;;;2.20;0.40;;;;;;;;;;6155025;23;20021;-85
2023/11/20 11:30:38;;;;;;;0.65;0.20;;;;;;;;;;6154743;23;20025;-83
2023/11/20 11:33:15;;;;;;;0.70;0.20;;;;;;;;;;6180808;23;20082;-84
2023/11/20 11:36:02;;;;;;;1.58;0.30;;;;;;;;;;6154154;23;20021;-85
2023/11/20 11:38:40;;;;;;;2.17;0.10;;;;;;;;;;6155788;23;20104;-85
2023/11/20 11:41:21;;;;;;;0.75;0.20;;;;;;;;;;6182157;23;20070;-85
2023/11/20 11:44:07;;;;;;;3.22;2.17;;;;;;;;;;6181799;23;20092;-85
2023/11/20 11:46:35;;;;;;;0.25;0.25;;;;;;;;;;6155736;23;20076;-85
2023/11/20 11:49:22;;;;;;;0.30;0.20;;;;;;;;;;6181569;23;20086;-84
2023/11/20 11:51:49;;;;;;;2.58;1.40;;;;;;;;;;6155767;23;20021;-85
2023/11/20 11:54:17;;;;;;;0.73;0.20;;;;;;;;;;6155442;23;20028;-84
2023/11/20 11:56:53;;;;;;;0.10;0.10;;;;;;;;;;6181482;23;20029;-84
2023/11/20 11:59:27;;;;;;;0.20;0.20;;;;;;;;;;6182493;23;20021;-85
2023/11/20 12:01:55;;;;;;;2.95;0.30;;;;;;;;;;6156555;23;20053;-85
2023/11/20 12:04:41;;;;;;;1.10;0.20;;;;;;;;;;6156237;23;20025;-84
2023/11/20 12:07:09;;;;;;;1.15;0.20;;;;;;;;;;6182345;23;20057;-84
2023/11/20 12:09:55;;;;;;;0.35;0.20;;;;;;;;;;6181926;23;20526;-83
2023/11/20 12:12:43;;;;;;;0.40;0.30;;;;;;;;;;6182409;23;20049;-85
2023/11/20 12:15:29;;;;;;;6.05;1.33;;;;;;;;;;6155908;23;20457;-85
2023/11/20 12:18:01;;;;;;;0.20;0.20;;;;;;;;;;6156457;23;20109;-85
2023/11/20 12:20:30;;;;;;;0.40;0.20;;;;;;;;;;6182335;23;20029;-85
2023/11/20 12:23:06;;;;;;;1.50;0.28;;;;;;;;;;6187718;23;20029;-84
2023/11/20 12:25:37;;;;;;;1.75;0.30;;;;;;;;;;6186381;23;20477;-85
2023/11/20 12:28:10;;;;;;;0.40;0.40;;;;;;;;;;6182267;23;20096;-85
2023/11/20 12:30:37;;;;;;;1.05;0.20;;;;;;;;;;6182451;23;20099;-84
2023/11/20 12:33:05;;;;;;;1.80;0.40;;;;;;;;;;6182220;23;20086;-84
2023/11/20 12:35:32;;;;;;;2.28;0.30;;;;;;;;;;6182260;23;20029;-84
2023/11/20 12:38:03;;;;;;;0.75;0.32;;;;;;;;;;6182270;23;20058;-84
2023/11/20 12:40:30;;;;;;;2.22;0.40;;;;;;;;;;6181924;23;20025;-84
2023/11/20 12:42:57;;;;;;;2.63;0.50;;;;;;;;;;6155485;23;20021;-85
2023/11/20 12:45:25;;;;;;;4.13;0.45;;;;;;;;;;6155795;23;20021;-85
2023/11/20 12:47:53;;;;;;;0.68;0.30;;;;;;;;;;6155985;23;20205;-85
2023/11/20 12:50:24;;;;;;;4.18;0.70;;;;;;;;;;6182321;23;20312;-85
2023/11/20 12:52:53;;;;;;;0.85;0.35;;;;;;;;;;6181493;23;20032;-85
2023/11/20 12:55:21;;;;;;;6.65;1.23;;;;;;;;;;6181432;23;20021;-85
2023/11/20 12:57:53;;;;;;;1.27;0.50;;;;;;;;;;6181898;23;20021;-84
2023/11/20 13:00:23;;;;;;;2.88;0.50;;;;;;;;;;6155976;23;20051;-84
2023/11/20 13:02:55;;;;;;;1.98;0.47;;;;;;;;;;6155691;23;20492;-84
2023/11/20 13:05:23;;;;;;;4.15;0.77;;;;;;;;;;6156147;23;20020;-85
2023/11/20 13:08:02;;;;;;;1.52;0.82;;;;;;;;;;6156065;23;20017;-85
2023/11/20 13:10:30;;;;;;;1.33;0.45;;;;;;;;;;6156003;23;20021;-84
2023/11/20 13:13:08;;;;;;;1.55;0.40;;;;;;;;;;6181772;23;20523;-85
2023/11/20 13:15:35;;;;;;;3.90;0.75;;;;;;;;;;6155796;23;20021;-85
2023/11/20 13:18:04;;;;;;;1.17;0.50;;;;;;;;;;6182021;23;20025;-85
2023/11/20 13:20:40;;;;;;;9.60;1.00;;;;;;;;;;6156266;23;20027;-85
2023/11/20 13:23:36;;;;;;;2.53;0.47;;;;;;;;;;6156144;23;20021;-85
2023/11/20 13:26:03;;;;;;;4.15;0.80;;;;;;;;;;6155210;23;20028;-85
2023/11/20 13:28:35;;;;;;;1.45;0.40;;;;;;;;;;6156102;23;20090;-85
2023/11/20 13:31:05;;;;;;;4.63;1.10;;;;;;;;;;6155854;23;20462;-85
2023/11/20 13:33:34;;;;;;;2.70;0.55;;;;;;;;;;6155830;23;20078;-84
2023/11/20 13:36:02;;;;;;;3.22;0.50;;;;;;;;;;6182142;23;20024;-85
2023/11/20 13:38:31;;;;;;;13.18;1.10;;;;;;;;;;6181976;23;20029;-84
2023/11/20 13:40:59;;;;;;;8.73;1.00;;;;;;;;;;6182293;23;20308;-85
2023/11/20 13:43:29;;;;;;;2.88;0.70;;;;;;;;;;6155863;23;20027;-85
2023/11/20 13:46:01;;;;;;;2.53;0.52;;;;;;;;;;6181406;23;20484;-85
2023/11/20 13:48:33;;;;;;;1.58;0.40;;;;;;;;;;6155535;23;20489;-85
2023/11/20 13:51:02;;;;;;;6.68;1.05;;;;;;;;;;6182155;23;20331;-85
2023/11/20 13:53:30;;;;;;;2.30;0.70;;;;;;;;;;6150149;23;20049;-85
2023/11/20 13:55:58;;;;;;;21.48;2.00;;;;;;;;;;6150489;23;20481;-86
2023/11/20 13:58:27;;;;;;;4.10;0.70;;;;;;;;;;6151841;23;20443;-85
2023/11/20 14:01:01;;;;;;;2.15;0.80;;;;;;;;;;6151569;23;20041;-85
2023/11/20 14:03:31;;;;;;;5.75;1.17;;;;;;;;;;6152108;23;20053;-85
2023/11/20 14:06:03;;;;;;;29.15;2.47;;;;;;;;;;6150391;23;20024;-85
2023/11/20 14:08:30;;;;;;;2.90;0.60;;;;;;;;;;6152296;23;20021;-84
2023/11/20 14:10:58;;;;;;;1.13;0.60;;;;;;;;;;6150528;23;20466;-85
2023/11/20 14:13:27;;;;;;;4.20;0.90;;;;;;;;;;6150657;23;20026;-85
2023/11/20 14:15:57;;;;;;;3.17;1.00;;;;;;;;;;6150784;23;20045;-85
2023/11/20 14:18:30;;;;;;;1.90;0.73;;;;;;;;;;6150872;23;20075;-85
2023/11/20 14:20:58;;;;;;;3.08;0.68;;;;;;;;;;6152352;23;20477;-84
2023/11/20 14:23:26;;;;;;;1.55;0.70;;;;;;;;;;6150840;23;20026;-85
2023/11/20 14:25:54;;;;;;;6.13;0.82;;;;;;;;;;6152100;23;20021;-86
2023/11/20 14:28:41;;;;;;;3.15;0.85;;;;;;;;;;6150476;23;20018;-85
2023/11/20 14:31:08;;;;;;;3.75;0.88;;;;;;;;;;6150723;23;20028;-85
2023/11/20 14:33:36;;;;;;;4.43;0.80;;;;;;;;;;6150246;23;20442;-85
2023/11/20 14:36:03;;;;;;;2.83;0.77;;;;;;;;;;6150655;23;20052;-85
2023/11/20 14:38:32;;;;;;;3.17;0.75;;;;;;;;;;6152307;23;20026;-85
2023/11/20 14:40:59;;;;;;;15.20;1.40;;;;;;;;;;6152244;23;20092;-86
2023/11/20 14:43:27;;;;;;;5.28;0.90;;;;;;;;;;6150495;23;20044;-86
2023/11/20 14:45:54;;;;;;;2.65;0.80;;;;;;;;;;6150850;23;20029;-85
2023/11/20 14:48:22;;;;;;;0.80;0.40;;;;;;;;;;6150240;23;20041;-86
2023/11/20 14:50:49;;;;;;;3.63;0.60;;;;;;;;;;6152387;23;20070;-86
2023/11/20 14:53:16;;;;;;;3.15;0.80;;;;;;;;;;6155793;23;20021;-87